sensor_id;sensor_type;location;lat;lon;timestamp;P1;durP1;ratioP1;P2;durP2;ratioP2
60243;SDS011;46106;51.468;5.814;2022-10-04T00:01:27;31.27;;;15.57;;
60243;SDS011;46106;51.468;5.814;2022-10-04T00:04:06;35.50;;;15.05;;
60243;SDS011;46106;51.468;5.814;2022-10-04T00:06:42;24.53;;;14.00;;
60243;SDS011;46106;51.468;5.814;2022-10-04T00:09:18;25.17;;;13.95;;
60243;SDS011;46106;51.468;5.814;2022-10-04T00:11:47;24.63;;;14.35;;
60243;SDS011;46106;51.468;5.814;2022-10-04T00:14:15;32.13;;;14.93;;
60243;SDS011;46106;51.468;5.814;2022-10-04T00:16:42;29.10;;;14.25;;
60243;SDS011;46106;51.468;5.814;2022-10-04T00:24:21;23.85;;;14.40;;
60243;SDS011;46106;51.468;5.814;2022-10-04T00:27:18;28.52;;;14.98;;
60243;SDS011;46106;51.468;5.814;2022-10-04T00:29:49;29.35;;;15.35;;
60243;SDS011;46106;51.468;5.814;2022-10-04T00:32:58;27.60;;;15.00;;
60243;SDS011;46106;51.468;5.814;2022-10-04T00:40:33;25.83;;;14.68;;
60243;SDS011;46106;51.468;5.814;2022-10-04T00:46:06;31.30;;;15.95;;
60243;SDS011;46106;51.468;5.814;2022-10-04T00:48:58;28.38;;;15.13;;
60243;SDS011;46106;51.468;5.814;2022-10-04T00:51:49;33.75;;;15.55;;
60243;SDS011;46106;51.468;5.814;2022-10-04T00:56:55;28.65;;;14.75;;
60243;SDS011;46106;51.468;5.814;2022-10-04T01:04:41;28.55;;;14.73;;
60243;SDS011;46106;51.468;5.814;2022-10-04T01:07:13;28.30;;;14.98;;
60243;SDS011;46106;51.468;5.814;2022-10-04T01:09:53;29.38;;;16.02;;
60243;SDS011;46106;51.468;5.814;2022-10-04T01:12:32;34.97;;;15.60;;
60243;SDS011;46106;51.468;5.814;2022-10-04T01:15:07;28.30;;;15.73;;
60243;SDS011;46106;51.468;5.814;2022-10-04T01:17:39;27.85;;;15.10;;
60243;SDS011;46106;51.468;5.814;2022-10-04T01:20:23;31.05;;;15.18;;
60243;SDS011;46106;51.468;5.814;2022-10-04T01:23:02;29.95;;;15.25;;
60243;SDS011;46106;51.468;5.814;2022-10-04T01:25:47;42.42;;;16.30;;
60243;SDS011;46106;51.468;5.814;2022-10-04T01:28:16;26.60;;;16.10;;
60243;SDS011;46106;51.468;5.814;2022-10-04T01:30:42;30.50;;;17.08;;
60243;SDS011;46106;51.468;5.814;2022-10-04T01:33:08;36.72;;;17.73;;
60243;SDS011;46106;51.468;5.814;2022-10-04T01:35:36;29.77;;;17.63;;
60243;SDS011;46106;51.468;5.814;2022-10-04T01:38:03;31.75;;;16.90;;
60243;SDS011;46106;51.468;5.814;2022-10-04T01:40:33;35.88;;;18.13;;
60243;SDS011;46106;51.468;5.814;2022-10-04T01:43:04;26.30;;;16.60;;
60243;SDS011;46106;51.468;5.814;2022-10-04T01:45:35;32.03;;;16.08;;
60243;SDS011;46106;51.468;5.814;2022-10-04T01:48:06;33.38;;;16.90;;
60243;SDS011;46106;51.468;5.814;2022-10-04T01:50:38;22.45;;;15.80;;
60243;SDS011;46106;51.468;5.814;2022-10-04T01:55:37;28.15;;;16.13;;
60243;SDS011;46106;51.468;5.814;2022-10-04T01:58:27;26.98;;;14.82;;
60243;SDS011;46106;51.468;5.814;2022-10-04T02:00:56;36.35;;;16.20;;
60243;SDS011;46106;51.468;5.814;2022-10-04T02:03:30;30.60;;;16.67;;
60243;SDS011;46106;51.468;5.814;2022-10-04T02:06:02;44.50;;;16.88;;
60243;SDS011;46106;51.468;5.814;2022-10-04T02:08:32;27.95;;;16.17;;
60243;SDS011;46106;51.468;5.814;2022-10-04T02:11:02;32.75;;;16.48;;
60243;SDS011;46106;51.468;5.814;2022-10-04T02:13:32;24.33;;;16.48;;
60243;SDS011;46106;51.468;5.814;2022-10-04T02:16:01;34.28;;;16.75;;
60243;SDS011;46106;51.468;5.814;2022-10-04T02:18:28;36.33;;;17.00;;
60243;SDS011;46106;51.468;5.814;2022-10-04T02:20:58;35.85;;;17.63;;
60243;SDS011;46106;51.468;5.814;2022-10-04T02:23:24;54.15;;;17.83;;
60243;SDS011;46106;51.468;5.814;2022-10-04T02:25:51;31.63;;;17.02;;
60243;SDS011;46106;51.468;5.814;2022-10-04T02:28:17;32.05;;;16.75;;
60243;SDS011;46106;51.468;5.814;2022-10-04T02:30:44;32.15;;;16.13;;
60243;SDS011;46106;51.468;5.814;2022-10-04T02:33:37;23.83;;;15.95;;
60243;SDS011;46106;51.468;5.814;2022-10-04T02:36:04;37.70;;;17.17;;
60243;SDS011;46106;51.468;5.814;2022-10-04T02:38:33;39.47;;;16.48;;
60243;SDS011;46106;51.468;5.814;2022-10-04T02:43:43;31.90;;;16.45;;
60243;SDS011;46106;51.468;5.814;2022-10-04T02:46:30;33.53;;;16.25;;
60243;SDS011;46106;51.468;5.814;2022-10-04T02:49:12;36.13;;;17.63;;
60243;SDS011;46106;51.468;5.814;2022-10-04T02:51:53;40.15;;;16.73;;
60243;SDS011;46106;51.468;5.814;2022-10-04T02:57:21;33.00;;;15.15;;
60243;SDS011;46106;51.468;5.814;2022-10-04T02:59:48;39.13;;;16.80;;
60243;SDS011;46106;51.468;5.814;2022-10-04T03:02:25;31.20;;;16.98;;
60243;SDS011;46106;51.468;5.814;2022-10-04T03:04:53;32.42;;;15.38;;
60243;SDS011;46106;51.468;5.814;2022-10-04T03:07:22;35.50;;;16.83;;
60243;SDS011;46106;51.468;5.814;2022-10-04T03:09:49;29.95;;;14.68;;
60243;SDS011;46106;51.468;5.814;2022-10-04T03:12:15;33.55;;;15.35;;
60243;SDS011;46106;51.468;5.814;2022-10-04T03:14:41;47.10;;;16.25;;
60243;SDS011;46106;51.468;5.814;2022-10-04T03:17:07;34.17;;;15.38;;
60243;SDS011;46106;51.468;5.814;2022-10-04T03:19:33;27.13;;;15.60;;
60243;SDS011;46106;51.468;5.814;2022-10-04T03:22:06;24.05;;;14.60;;
60243;SDS011;46106;51.468;5.814;2022-10-04T03:27:30;27.83;;;14.00;;
60243;SDS011;46106;51.468;5.814;2022-10-04T03:29:58;30.52;;;13.73;;
60243;SDS011;46106;51.468;5.814;2022-10-04T03:32:26;27.35;;;13.98;;
60243;SDS011;46106;51.468;5.814;2022-10-04T03:34:57;30.13;;;14.32;;
60243;SDS011;46106;51.468;5.814;2022-10-04T03:37:26;26.17;;;13.63;;
60243;SDS011;46106;51.468;5.814;2022-10-04T03:39:54;22.67;;;12.73;;
60243;SDS011;46106;51.468;5.814;2022-10-04T03:44:52;26.60;;;13.45;;
60243;SDS011;46106;51.468;5.814;2022-10-04T03:47:24;29.30;;;13.30;;
60243;SDS011;46106;51.468;5.814;2022-10-04T03:49:54;25.67;;;13.10;;
60243;SDS011;46106;51.468;5.814;2022-10-04T03:52:26;27.13;;;13.73;;
60243;SDS011;46106;51.468;5.814;2022-10-04T03:54:57;27.83;;;13.30;;
60243;SDS011;46106;51.468;5.814;2022-10-04T03:57:26;20.48;;;13.18;;
60243;SDS011;46106;51.468;5.814;2022-10-04T03:59:51;30.65;;;13.10;;
60243;SDS011;46106;51.468;5.814;2022-10-04T04:02:25;31.65;;;14.60;;
60243;SDS011;46106;51.468;5.814;2022-10-04T04:05:09;27.92;;;13.23;;
60243;SDS011;46106;51.468;5.814;2022-10-04T04:10:51;27.77;;;12.68;;
60243;SDS011;46106;51.468;5.814;2022-10-04T04:13:28;28.20;;;12.50;;
60243;SDS011;46106;51.468;5.814;2022-10-04T04:16:02;30.87;;;12.67;;
60243;SDS011;46106;51.468;5.814;2022-10-04T04:18:31;27.40;;;12.38;;
60243;SDS011;46106;51.468;5.814;2022-10-04T04:20:59;27.67;;;12.82;;
60243;SDS011;46106;51.468;5.814;2022-10-04T04:28:48;27.00;;;14.05;;
60243;SDS011;46106;51.468;5.814;2022-10-04T04:31:22;29.38;;;12.10;;
60243;SDS011;46106;51.468;5.814;2022-10-04T04:33:58;25.58;;;12.55;;
60243;SDS011;46106;51.468;5.814;2022-10-04T04:36:26;25.67;;;10.98;;
60243;SDS011;46106;51.468;5.814;2022-10-04T04:38:53;20.20;;;11.45;;
60243;SDS011;46106;51.468;5.814;2022-10-04T04:41:37;24.95;;;12.68;;
60243;SDS011;46106;51.468;5.814;2022-10-04T04:44:09;17.60;;;11.40;;
60243;SDS011;46106;51.468;5.814;2022-10-04T04:46:40;22.83;;;11.73;;
60243;SDS011;46106;51.468;5.814;2022-10-04T04:49:08;21.75;;;11.90;;
60243;SDS011;46106;51.468;5.814;2022-10-04T04:51:36;29.33;;;11.80;;
60243;SDS011;46106;51.468;5.814;2022-10-04T04:54:02;25.50;;;12.38;;
60243;SDS011;46106;51.468;5.814;2022-10-04T04:56:31;29.33;;;11.85;;
60243;SDS011;46106;51.468;5.814;2022-10-04T04:58:58;24.70;;;11.32;;
60243;SDS011;46106;51.468;5.814;2022-10-04T05:01:32;24.17;;;11.93;;
60243;SDS011;46106;51.468;5.814;2022-10-04T05:04:04;22.05;;;10.77;;
60243;SDS011;46106;51.468;5.814;2022-10-04T05:07:04;27.60;;;10.77;;
60243;SDS011;46106;51.468;5.814;2022-10-04T05:09:40;24.58;;;10.60;;
60243;SDS011;46106;51.468;5.814;2022-10-04T05:12:09;30.63;;;11.13;;
60243;SDS011;46106;51.468;5.814;2022-10-04T05:14:45;28.20;;;11.43;;
60243;SDS011;46106;51.468;5.814;2022-10-04T05:19:58;22.60;;;11.32;;
60243;SDS011;46106;51.468;5.814;2022-10-04T05:22:26;32.75;;;11.38;;
60243;SDS011;46106;51.468;5.814;2022-10-04T05:24:54;25.60;;;11.65;;
60243;SDS011;46106;51.468;5.814;2022-10-04T05:32:43;23.67;;;11.35;;
60243;SDS011;46106;51.468;5.814;2022-10-04T05:35:24;28.02;;;11.43;;
60243;SDS011;46106;51.468;5.814;2022-10-04T05:38:02;26.02;;;11.40;;
60243;SDS011;46106;51.468;5.814;2022-10-04T05:45:46;29.60;;;10.45;;
60243;SDS011;46106;51.468;5.814;2022-10-04T05:48:30;25.98;;;10.20;;
60243;SDS011;46106;51.468;5.814;2022-10-04T05:50:57;22.90;;;11.75;;
60243;SDS011;46106;51.468;5.814;2022-10-04T05:56:20;18.75;;;10.00;;
60243;SDS011;46106;51.468;5.814;2022-10-04T06:04:31;21.98;;;10.00;;
60243;SDS011;46106;51.468;5.814;2022-10-04T06:09:47;20.95;;;10.20;;
60243;SDS011;46106;51.468;5.814;2022-10-04T06:21:12;24.80;;;10.38;;
60243;SDS011;46106;51.468;5.814;2022-10-04T06:24:02;25.17;;;11.32;;
60243;SDS011;46106;51.468;5.814;2022-10-04T06:26:38;26.10;;;11.18;;
60243;SDS011;46106;51.468;5.814;2022-10-04T06:29:48;27.23;;;10.38;;
60243;SDS011;46106;51.468;5.814;2022-10-04T06:55:02;22.10;;;10.23;;
60243;SDS011;46106;51.468;5.814;2022-10-04T07:03:44;25.90;;;11.10;;
60243;SDS011;46106;51.468;5.814;2022-10-04T07:06:30;20.10;;;10.15;;
60243;SDS011;46106;51.468;5.814;2022-10-04T07:09:01;25.52;;;13.73;;
60243;SDS011;46106;51.468;5.814;2022-10-04T07:11:35;25.15;;;10.88;;
60243;SDS011;46106;51.468;5.814;2022-10-04T07:14:12;26.45;;;12.15;;
60243;SDS011;46106;51.468;5.814;2022-10-04T07:16:44;27.08;;;11.40;;
60243;SDS011;46106;51.468;5.814;2022-10-04T07:19:36;25.38;;;10.10;;
60243;SDS011;46106;51.468;5.814;2022-10-04T07:24:37;19.90;;;10.63;;
60243;SDS011;46106;51.468;5.814;2022-10-04T07:27:14;27.15;;;10.55;;
60243;SDS011;46106;51.468;5.814;2022-10-04T07:29:44;20.40;;;10.68;;
60243;SDS011;46106;51.468;5.814;2022-10-04T07:32:12;20.58;;;11.63;;
60243;SDS011;46106;51.468;5.814;2022-10-04T07:35:12;22.17;;;11.43;;
60243;SDS011;46106;51.468;5.814;2022-10-04T07:37:35;25.00;;;11.52;;
60243;SDS011;46106;51.468;5.814;2022-10-04T07:43:06;23.83;;;10.73;;
60243;SDS011;46106;51.468;5.814;2022-10-04T07:46:02;27.90;;;11.27;;
60243;SDS011;46106;51.468;5.814;2022-10-04T07:48:49;16.10;;;10.00;;
60243;SDS011;46106;51.468;5.814;2022-10-04T07:51:30;23.02;;;10.68;;
60243;SDS011;46106;51.468;5.814;2022-10-04T07:54:09;20.02;;;9.57;;
60243;SDS011;46106;51.468;5.814;2022-10-04T07:56:46;19.67;;;10.43;;
60243;SDS011;46106;51.468;5.814;2022-10-04T08:13:25;18.45;;;9.45;;
60243;SDS011;46106;51.468;5.814;2022-10-04T08:15:58;23.45;;;9.48;;
60243;SDS011;46106;51.468;5.814;2022-10-04T08:21:02;21.50;;;8.65;;
60243;SDS011;46106;51.468;5.814;2022-10-04T08:26:33;22.50;;;8.77;;
60243;SDS011;46106;51.468;5.814;2022-10-04T08:29:07;22.77;;;9.15;;
60243;SDS011;46106;51.468;5.814;2022-10-04T08:46:48;14.18;;;8.05;;
60243;SDS011;46106;51.468;5.814;2022-10-04T09:12:13;105.30;;;11.10;;
60243;SDS011;46106;51.468;5.814;2022-10-04T09:15:06;52.47;;;8.57;;
60243;SDS011;46106;51.468;5.814;2022-10-04T09:23:11;30.30;;;8.00;;
60243;SDS011;46106;51.468;5.814;2022-10-04T09:40:20;17.20;;;6.28;;
60243;SDS011;46106;51.468;5.814;2022-10-04T09:45:58;16.50;;;6.13;;
60243;SDS011;46106;51.468;5.814;2022-10-04T09:48:34;15.23;;;5.75;;
60243;SDS011;46106;51.468;5.814;2022-10-04T09:57:02;13.35;;;5.88;;
60243;SDS011;46106;51.468;5.814;2022-10-04T10:02:57;20.08;;;5.72;;
60243;SDS011;46106;51.468;5.814;2022-10-04T10:05:20;15.05;;;5.90;;
60243;SDS011;46106;51.468;5.814;2022-10-04T10:11:03;7.32;;;4.70;;
60243;SDS011;46106;51.468;5.814;2022-10-04T10:21:51;14.20;;;5.18;;
60243;SDS011;46106;51.468;5.814;2022-10-04T10:24:35;14.57;;;5.30;;
60243;SDS011;46106;51.468;5.814;2022-10-04T10:30:26;11.10;;;4.35;;
60243;SDS011;46106;51.468;5.814;2022-10-04T10:47:27;10.85;;;3.92;;
60243;SDS011;46106;51.468;5.814;2022-10-04T10:50:15;7.07;;;3.70;;
60243;SDS011;46106;51.468;5.814;2022-10-04T11:10:12;7.90;;;4.07;;
60243;SDS011;46106;51.468;5.814;2022-10-04T11:26:58;5.93;;;3.00;;
60243;SDS011;46106;51.468;5.814;2022-10-04T11:40:51;5.45;;;3.20;;
60243;SDS011;46106;51.468;5.814;2022-10-04T12:00:20;8.38;;;3.33;;
60243;SDS011;46106;51.468;5.814;2022-10-04T12:09:24;6.90;;;2.80;;
60243;SDS011;46106;51.468;5.814;2022-10-04T12:12:03;12.35;;;3.28;;
60243;SDS011;46106;51.468;5.814;2022-10-04T12:25:50;7.28;;;3.03;;
60243;SDS011;46106;51.468;5.814;2022-10-04T12:28:31;8.38;;;2.90;;
60243;SDS011;46106;51.468;5.814;2022-10-04T12:31:10;9.82;;;2.80;;
60243;SDS011;46106;51.468;5.814;2022-10-04T12:41:30;9.02;;;2.70;;
60243;SDS011;46106;51.468;5.814;2022-10-04T12:46:59;7.25;;;2.30;;
60243;SDS011;46106;51.468;5.814;2022-10-04T12:49:55;7.43;;;2.70;;
60243;SDS011;46106;51.468;5.814;2022-10-04T12:52:25;7.28;;;2.83;;
60243;SDS011;46106;51.468;5.814;2022-10-04T12:57:48;9.80;;;3.28;;
60243;SDS011;46106;51.468;5.814;2022-10-04T13:00:22;15.77;;;3.17;;
60243;SDS011;46106;51.468;5.814;2022-10-04T13:09:15;8.48;;;3.17;;
60243;SDS011;46106;51.468;5.814;2022-10-04T13:36:27;6.65;;;1.98;;
60243;SDS011;46106;51.468;5.814;2022-10-04T13:39:38;5.25;;;1.98;;
60243;SDS011;46106;51.468;5.814;2022-10-04T13:42:24;6.00;;;2.30;;
60243;SDS011;46106;51.468;5.814;2022-10-04T13:50:35;5.32;;;2.00;;
60243;SDS011;46106;51.468;5.814;2022-10-04T13:53:08;4.25;;;1.75;;
60243;SDS011;46106;51.468;5.814;2022-10-04T13:56:18;4.03;;;1.70;;
60243;SDS011;46106;51.468;5.814;2022-10-04T14:13:30;10.63;;;1.80;;
60243;SDS011;46106;51.468;5.814;2022-10-04T14:16:10;7.05;;;2.10;;
60243;SDS011;46106;51.468;5.814;2022-10-04T14:29:24;6.13;;;2.00;;
60243;SDS011;46106;51.468;5.814;2022-10-04T14:43:17;7.65;;;2.22;;
60243;SDS011;46106;51.468;5.814;2022-10-04T14:54:35;9.65;;;2.78;;
60243;SDS011;46106;51.468;5.814;2022-10-04T15:00:23;10.45;;;2.58;;
60243;SDS011;46106;51.468;5.814;2022-10-04T15:03:18;6.20;;;3.03;;
60243;SDS011;46106;51.468;5.814;2022-10-04T15:11:05;9.57;;;3.30;;
60243;SDS011;46106;51.468;5.814;2022-10-04T15:16:44;8.45;;;2.60;;
60243;SDS011;46106;51.468;5.814;2022-10-04T15:21:58;8.23;;;2.50;;
60243;SDS011;46106;51.468;5.814;2022-10-04T15:27:27;5.97;;;2.55;;
60243;SDS011;46106;51.468;5.814;2022-10-04T15:30:05;9.82;;;3.00;;
60243;SDS011;46106;51.468;5.814;2022-10-04T15:35:33;6.97;;;2.85;;
60243;SDS011;46106;51.468;5.814;2022-10-04T15:46:21;8.30;;;3.92;;
60243;SDS011;46106;51.468;5.814;2022-10-04T15:54:41;8.85;;;4.57;;
60243;SDS011;46106;51.468;5.814;2022-10-04T15:59:51;7.75;;;3.97;;
60243;SDS011;46106;51.468;5.814;2022-10-04T16:15:47;8.63;;;3.85;;
60243;SDS011;46106;51.468;5.814;2022-10-04T16:18:44;10.90;;;3.47;;
60243;SDS011;46106;51.468;5.814;2022-10-04T16:21:49;10.65;;;3.85;;
60243;SDS011;46106;51.468;5.814;2022-10-04T16:34:55;9.65;;;3.20;;
60243;SDS011;46106;51.468;5.814;2022-10-04T16:45:31;7.80;;;3.03;;
60243;SDS011;46106;51.468;5.814;2022-10-04T16:48:12;7.60;;;2.67;;
60243;SDS011;46106;51.468;5.814;2022-10-04T16:56:25;14.27;;;3.55;;
60243;SDS011;46106;51.468;5.814;2022-10-04T16:59:09;7.40;;;3.30;;
60243;SDS011;46106;51.468;5.814;2022-10-04T17:01:40;9.43;;;3.00;;
60243;SDS011;46106;51.468;5.814;2022-10-04T17:07:23;10.88;;;3.30;;
60243;SDS011;46106;51.468;5.814;2022-10-04T17:20:56;14.75;;;5.28;;
60243;SDS011;46106;51.468;5.814;2022-10-04T17:23:32;7.22;;;3.95;;
60243;SDS011;46106;51.468;5.814;2022-10-04T17:28:55;9.27;;;4.43;;
60243;SDS011;46106;51.468;5.814;2022-10-04T17:48:00;16.67;;;5.55;;
60243;SDS011;46106;51.468;5.814;2022-10-04T17:53:47;11.55;;;5.43;;
60243;SDS011;46106;51.468;5.814;2022-10-04T17:56:49;14.38;;;7.22;;
60243;SDS011;46106;51.468;5.814;2022-10-04T17:59:40;17.10;;;6.55;;
60243;SDS011;46106;51.468;5.814;2022-10-04T18:04:47;12.82;;;5.70;;
60243;SDS011;46106;51.468;5.814;2022-10-04T18:07:22;11.73;;;6.13;;
60243;SDS011;46106;51.468;5.814;2022-10-04T18:09:52;15.07;;;5.65;;
60243;SDS011;46106;51.468;5.814;2022-10-04T18:12:29;12.38;;;5.72;;
60243;SDS011;46106;51.468;5.814;2022-10-04T18:17:39;11.18;;;6.40;;
60243;SDS011;46106;51.468;5.814;2022-10-04T18:20:29;13.77;;;6.38;;
60243;SDS011;46106;51.468;5.814;2022-10-04T18:23:17;9.85;;;6.43;;
60243;SDS011;46106;51.468;5.814;2022-10-04T18:25:45;10.80;;;6.50;;
60243;SDS011;46106;51.468;5.814;2022-10-04T18:28:12;13.13;;;6.43;;
60243;SDS011;46106;51.468;5.814;2022-10-04T18:33:18;11.27;;;7.18;;
60243;SDS011;46106;51.468;5.814;2022-10-04T18:35:50;14.88;;;7.25;;
60243;SDS011;46106;51.468;5.814;2022-10-04T18:38:32;16.00;;;7.75;;
60243;SDS011;46106;51.468;5.814;2022-10-04T18:40:59;13.90;;;7.50;;
60243;SDS011;46106;51.468;5.814;2022-10-04T18:43:32;14.30;;;7.60;;
60243;SDS011;46106;51.468;5.814;2022-10-04T18:46:13;11.40;;;7.40;;
60243;SDS011;46106;51.468;5.814;2022-10-04T18:51:30;17.17;;;7.85;;
60243;SDS011;46106;51.468;5.814;2022-10-04T18:56:51;12.10;;;7.20;;
60243;SDS011;46106;51.468;5.814;2022-10-04T19:02:33;18.80;;;7.35;;
60243;SDS011;46106;51.468;5.814;2022-10-04T19:11:32;14.15;;;7.53;;
60243;SDS011;46106;51.468;5.814;2022-10-04T19:19:49;18.05;;;8.80;;
60243;SDS011;46106;51.468;5.814;2022-10-04T19:22:49;13.88;;;8.35;;
60243;SDS011;46106;51.468;5.814;2022-10-04T19:28:27;16.95;;;9.05;;
60243;SDS011;46106;51.468;5.814;2022-10-04T19:33:54;13.60;;;8.27;;
60243;SDS011;46106;51.468;5.814;2022-10-04T19:41:56;13.98;;;8.00;;
60243;SDS011;46106;51.468;5.814;2022-10-04T19:50:23;16.92;;;8.68;;
60243;SDS011;46106;51.468;5.814;2022-10-04T19:52:54;22.10;;;8.88;;
60243;SDS011;46106;51.468;5.814;2022-10-04T19:58:07;12.15;;;7.68;;
60243;SDS011;46106;51.468;5.814;2022-10-04T20:00:38;14.98;;;8.75;;
60243;SDS011;46106;51.468;5.814;2022-10-04T20:03:08;12.52;;;7.95;;
60243;SDS011;46106;51.468;5.814;2022-10-04T20:05:40;20.23;;;9.03;;
60243;SDS011;46106;51.468;5.814;2022-10-04T20:11:15;14.82;;;7.97;;
60243;SDS011;46106;51.468;5.814;2022-10-04T20:13:44;15.17;;;8.67;;
60243;SDS011;46106;51.468;5.814;2022-10-04T20:16:10;13.13;;;8.35;;
60243;SDS011;46106;51.468;5.814;2022-10-04T20:21:09;11.77;;;8.07;;
60243;SDS011;46106;51.468;5.814;2022-10-04T20:23:47;14.68;;;8.23;;
60243;SDS011;46106;51.468;5.814;2022-10-04T20:26:33;21.10;;;8.43;;
60243;SDS011;46106;51.468;5.814;2022-10-04T20:32:51;17.50;;;8.70;;
60243;SDS011;46106;51.468;5.814;2022-10-04T20:35:00;19.95;;;8.65;;
60243;SDS011;46106;51.468;5.814;2022-10-04T20:43:22;14.88;;;8.85;;
60243;SDS011;46106;51.468;5.814;2022-10-04T20:45:36;15.82;;;8.90;;
60243;SDS011;46106;51.468;5.814;2022-10-04T20:48:11;16.58;;;9.68;;
60243;SDS011;46106;51.468;5.814;2022-10-04T20:50:44;19.30;;;9.43;;
60243;SDS011;46106;51.468;5.814;2022-10-04T20:53:24;14.50;;;9.25;;
60243;SDS011;46106;51.468;5.814;2022-10-04T20:56:08;17.33;;;9.73;;
60243;SDS011;46106;51.468;5.814;2022-10-04T20:58:48;17.13;;;9.90;;
60243;SDS011;46106;51.468;5.814;2022-10-04T21:01:23;15.10;;;9.32;;
60243;SDS011;46106;51.468;5.814;2022-10-04T21:07:06;16.30;;;9.88;;
60243;SDS011;46106;51.468;5.814;2022-10-04T21:09:37;20.30;;;9.52;;
60243;SDS011;46106;51.468;5.814;2022-10-04T21:12:04;16.80;;;9.50;;
60243;SDS011;46106;51.468;5.814;2022-10-04T21:14:31;18.52;;;9.18;;
60243;SDS011;46106;51.468;5.814;2022-10-04T21:16:59;15.25;;;8.93;;
60243;SDS011;46106;51.468;5.814;2022-10-04T21:21:58;17.58;;;9.75;;
60243;SDS011;46106;51.468;5.814;2022-10-04T21:24:52;21.55;;;9.65;;
60243;SDS011;46106;51.468;5.814;2022-10-04T21:27:11;16.38;;;9.98;;
60243;SDS011;46106;51.468;5.814;2022-10-04T21:29:49;19.45;;;10.50;;
60243;SDS011;46106;51.468;5.814;2022-10-04T21:32:17;21.92;;;9.75;;
60243;SDS011;46106;51.468;5.814;2022-10-04T21:34:43;18.13;;;9.32;;
60243;SDS011;46106;51.468;5.814;2022-10-04T21:37:09;23.73;;;10.32;;
60243;SDS011;46106;51.468;5.814;2022-10-04T21:39:34;20.60;;;9.65;;
60243;SDS011;46106;51.468;5.814;2022-10-04T21:42:00;17.90;;;9.57;;
60243;SDS011;46106;51.468;5.814;2022-10-04T21:44:25;18.65;;;9.45;;
60243;SDS011;46106;51.468;5.814;2022-10-04T21:46:50;15.02;;;9.07;;
60243;SDS011;46106;51.468;5.814;2022-10-04T21:49:16;17.70;;;9.68;;
60243;SDS011;46106;51.468;5.814;2022-10-04T21:51:41;15.05;;;9.02;;
60243;SDS011;46106;51.468;5.814;2022-10-04T21:54:07;15.75;;;8.63;;
60243;SDS011;46106;51.468;5.814;2022-10-04T21:56:32;20.77;;;9.18;;
60243;SDS011;46106;51.468;5.814;2022-10-04T21:58:58;18.13;;;9.48;;
60243;SDS011;46106;51.468;5.814;2022-10-04T22:01:23;17.02;;;10.40;;
60243;SDS011;46106;51.468;5.814;2022-10-04T22:03:49;14.93;;;8.88;;
60243;SDS011;46106;51.468;5.814;2022-10-04T22:06:16;17.85;;;8.95;;
60243;SDS011;46106;51.468;5.814;2022-10-04T22:08:41;28.67;;;8.95;;
60243;SDS011;46106;51.468;5.814;2022-10-04T22:11:07;19.73;;;9.00;;
60243;SDS011;46106;51.468;5.814;2022-10-04T22:13:33;16.15;;;8.77;;
60243;SDS011;46106;51.468;5.814;2022-10-04T22:15:59;19.55;;;9.52;;
60243;SDS011;46106;51.468;5.814;2022-10-04T22:18:26;19.73;;;8.95;;
60243;SDS011;46106;51.468;5.814;2022-10-04T22:20:52;19.77;;;9.30;;
60243;SDS011;46106;51.468;5.814;2022-10-04T22:23:19;14.35;;;9.43;;
60243;SDS011;46106;51.468;5.814;2022-10-04T22:25:46;19.88;;;9.75;;
60243;SDS011;46106;51.468;5.814;2022-10-04T22:28:25;22.02;;;10.20;;
60243;SDS011;46106;51.468;5.814;2022-10-04T22:30:53;18.00;;;9.65;;
60243;SDS011;46106;51.468;5.814;2022-10-04T22:33:26;18.27;;;9.32;;
60243;SDS011;46106;51.468;5.814;2022-10-04T22:35:59;16.70;;;9.18;;
60243;SDS011;46106;51.468;5.814;2022-10-04T22:38:36;19.70;;;9.82;;
60243;SDS011;46106;51.468;5.814;2022-10-04T22:41:07;17.27;;;10.52;;
60243;SDS011;46106;51.468;5.814;2022-10-04T22:43:35;22.33;;;10.77;;
60243;SDS011;46106;51.468;5.814;2022-10-04T22:46:00;24.70;;;10.35;;
60243;SDS011;46106;51.468;5.814;2022-10-04T22:48:26;21.20;;;10.38;;
60243;SDS011;46106;51.468;5.814;2022-10-04T22:50:53;17.38;;;10.02;;
60243;SDS011;46106;51.468;5.814;2022-10-04T22:53:19;22.40;;;11.02;;
60243;SDS011;46106;51.468;5.814;2022-10-04T22:55:46;21.17;;;10.60;;
60243;SDS011;46106;51.468;5.814;2022-10-04T22:58:13;19.40;;;10.77;;
60243;SDS011;46106;51.468;5.814;2022-10-04T23:00:40;15.85;;;10.63;;
60243;SDS011;46106;51.468;5.814;2022-10-04T23:03:27;15.20;;;10.38;;
60243;SDS011;46106;51.468;5.814;2022-10-04T23:05:58;16.45;;;10.45;;
60243;SDS011;46106;51.468;5.814;2022-10-04T23:08:25;16.25;;;11.27;;
60243;SDS011;46106;51.468;5.814;2022-10-04T23:10:54;15.27;;;10.65;;
60243;SDS011;46106;51.468;5.814;2022-10-04T23:13:22;17.65;;;10.80;;
60243;SDS011;46106;51.468;5.814;2022-10-04T23:15:48;16.83;;;11.43;;
60243;SDS011;46106;51.468;5.814;2022-10-04T23:18:15;18.52;;;10.73;;
60243;SDS011;46106;51.468;5.814;2022-10-04T23:20:42;14.18;;;10.07;;
60243;SDS011;46106;51.468;5.814;2022-10-04T23:23:18;18.90;;;10.23;;
60243;SDS011;46106;51.468;5.814;2022-10-04T23:25:46;19.23;;;10.90;;
60243;SDS011;46106;51.468;5.814;2022-10-04T23:28:15;18.83;;;10.20;;
60243;SDS011;46106;51.468;5.814;2022-10-04T23:30:43;16.05;;;10.23;;
60243;SDS011;46106;51.468;5.814;2022-10-04T23:33:20;16.52;;;10.32;;
60243;SDS011;46106;51.468;5.814;2022-10-04T23:35:48;18.15;;;9.73;;
60243;SDS011;46106;51.468;5.814;2022-10-04T23:38:15;15.93;;;10.52;;
60243;SDS011;46106;51.468;5.814;2022-10-04T23:40:42;17.85;;;10.27;;
60243;SDS011;46106;51.468;5.814;2022-10-04T23:43:42;14.98;;;10.52;;
60243;SDS011;46106;51.468;5.814;2022-10-04T23:46:01;19.75;;;10.90;;
60243;SDS011;46106;51.468;5.814;2022-10-04T23:48:46;21.83;;;10.90;;
60243;SDS011;46106;51.468;5.814;2022-10-04T23:51:14;18.90;;;10.98;;
60243;SDS011;46106;51.468;5.814;2022-10-04T23:53:43;17.75;;;11.00;;
60243;SDS011;46106;51.468;5.814;2022-10-04T23:56:23;16.98;;;11.13;;
60243;SDS011;46106;51.468;5.814;2022-10-04T23:58:53;17.23;;;10.93;;
